createdAt,value
2024-02-23T00:01:12.064Z,97967.70
2024-02-23T00:03:38.870Z,97987.48
2024-02-23T00:06:05.602Z,97982.20
2024-02-23T00:08:32.746Z,97991.94
2024-02-23T00:10:59.819Z,97985.52
2024-02-23T00:13:26.593Z,97988.02
2024-02-23T00:15:53.338Z,97991.04
2024-02-23T00:18:21.250Z,98012.50
2024-02-23T00:20:48.693Z,98001.42
2024-02-23T00:23:15.544Z,97991.53
2024-02-23T00:25:42.853Z,98001.69
2024-02-23T00:28:09.536Z,98012.33
2024-02-23T00:30:36.906Z,98028.79
2024-02-23T00:33:04.178Z,98027.14
2024-02-23T00:35:31.021Z,98042.70
2024-02-23T00:37:57.677Z,98046.53
2024-02-23T00:40:24.872Z,98050.64
2024-02-23T00:42:51.497Z,98055.94
2024-02-23T00:45:18.453Z,98055.09
2024-02-23T00:47:46.136Z,98050.70
2024-02-23T00:50:15.948Z,98056.89
2024-02-23T00:52:42.601Z,98069.26
2024-02-23T00:55:09.763Z,98071.54
2024-02-23T00:57:37.972Z,98075.02
2024-02-23T01:00:10.612Z,98068.41
2024-02-23T01:02:38.240Z,98075.15
2024-02-23T01:05:06.115Z,98092.52
2024-02-23T01:07:33.830Z,98093.97
2024-02-23T01:10:00.768Z,98086.36
2024-02-23T01:12:27.429Z,98094.95
2024-02-23T01:14:54.599Z,98094.69
2024-02-23T01:17:21.337Z,98099.34
2024-02-23T01:19:47.937Z,98105.55
2024-02-23T01:22:16.290Z,98122.16
2024-02-23T01:24:42.878Z,98127.00
2024-02-23T01:27:09.562Z,98134.20
2024-02-23T01:29:36.160Z,98123.16
2024-02-23T01:32:03.241Z,98134.51
2024-02-23T01:34:30.480Z,98132.00
2024-02-23T01:36:57.163Z,98146.80
2024-02-23T01:39:23.628Z,98157.14
2024-02-23T01:41:50.203Z,98158.91
2024-02-23T01:44:18.387Z,98158.45
2024-02-23T01:46:46.024Z,98161.19
2024-02-23T01:49:13.070Z,98171.91
2024-02-23T01:51:40.033Z,98183.02
2024-02-23T01:54:07.621Z,98183.32
2024-02-23T01:56:37.782Z,98190.11
2024-02-23T01:59:05.132Z,98198.79
2024-02-23T02:01:33.038Z,98208.95
2024-02-23T02:03:59.833Z,98215.33
2024-02-23T02:06:26.653Z,98225.31
2024-02-23T02:08:54.619Z,98210.91
2024-02-23T02:11:21.550Z,98224.86
2024-02-23T02:13:48.183Z,98231.65
2024-02-23T02:16:15.079Z,98237.23
2024-02-23T02:18:42.457Z,98246.55
2024-02-23T02:21:09.346Z,98251.71
2024-02-23T02:23:38.477Z,98259.46
2024-02-23T02:26:05.655Z,98260.39
2024-02-23T02:28:32.821Z,98258.45
2024-02-23T02:30:59.353Z,98275.92
2024-02-23T02:33:25.855Z,98267.48
2024-02-23T02:35:52.592Z,98278.46
2024-02-23T02:38:19.465Z,98281.10
2024-02-23T02:40:46.613Z,98268.55
2024-02-23T02:43:13.601Z,98272.87
2024-02-23T02:45:40.278Z,98275.84
2024-02-23T02:48:07.596Z,98272.80
2024-02-23T02:50:34.772Z,98270.80
2024-02-23T02:53:01.670Z,98279.71
2024-02-23T02:55:28.273Z,98277.86
2024-02-23T02:57:55.004Z,98282.98
2024-02-23T03:00:21.519Z,98285.05
2024-02-23T03:02:48.073Z,98278.91
2024-02-23T03:05:14.871Z,98281.30
2024-02-23T03:07:41.763Z,98283.66
2024-02-23T03:10:08.463Z,98285.55
2024-02-23T03:12:35.076Z,98290.48
2024-02-23T03:15:03.980Z,98299.23
2024-02-23T03:17:30.969Z,98294.69
2024-02-23T03:19:58.904Z,98298.86
2024-02-23T03:22:25.744Z,98302.69
2024-02-23T03:24:52.245Z,98309.44
2024-02-23T03:27:19.030Z,98311.70
2024-02-23T03:29:45.646Z,98315.16
2024-02-23T03:32:12.402Z,98314.83
2024-02-23T03:34:39.183Z,98322.88
2024-02-23T03:37:05.911Z,98320.88
2024-02-23T03:39:33.913Z,98323.94
2024-02-23T03:42:00.753Z,98321.39
2024-02-23T03:44:27.392Z,98322.45
2024-02-23T03:46:54.072Z,98331.35
2024-02-23T03:49:20.780Z,98330.20
2024-02-23T03:51:47.676Z,98332.79
2024-02-23T03:54:14.252Z,98336.73
2024-02-23T03:56:42.707Z,98336.41
2024-02-23T03:59:10.739Z,98345.63
2024-02-23T04:01:38.845Z,98339.48
2024-02-23T04:04:05.975Z,98338.15
2024-02-23T04:06:35.154Z,98335.97
2024-02-23T04:09:02.200Z,98337.88
2024-02-23T04:11:28.790Z,98335.70
2024-02-23T04:13:55.433Z,98333.17
2024-02-23T04:16:26.132Z,98335.93
2024-02-23T04:18:53.774Z,98335.29
2024-02-23T04:21:21.333Z,98336.81
2024-02-23T04:23:48.125Z,98340.39
2024-02-23T04:26:15.157Z,98339.71
2024-02-23T04:28:43.279Z,98343.13
2024-02-23T04:31:11.076Z,98349.11
2024-02-23T04:33:38.818Z,98344.21
2024-02-23T04:36:08.077Z,98345.11
2024-02-23T04:38:35.679Z,98346.14
2024-02-23T04:41:06.556Z,98343.61
2024-02-23T04:43:33.711Z,98345.34
2024-02-23T04:46:00.236Z,98346.89
2024-02-23T04:48:27.263Z,98345.09
2024-02-23T04:50:54.064Z,98345.66
2024-02-23T04:53:21.093Z,98338.73
2024-02-23T04:55:47.799Z,98339.11
2024-02-23T04:58:15.178Z,98336.79
2024-02-23T05:00:41.747Z,98343.98
2024-02-23T05:03:12.477Z,98336.03
2024-02-23T05:05:40.731Z,98338.65
2024-02-23T05:08:07.671Z,98334.10
2024-02-23T05:10:34.614Z,98338.05
2024-02-23T05:13:01.489Z,98336.92
2024-02-23T05:15:27.978Z,98337.31
2024-02-23T05:17:54.490Z,98344.00
2024-02-23T05:20:21.106Z,98341.31
2024-02-23T05:22:48.415Z,98350.03
2024-02-23T05:25:15.233Z,98343.95
2024-02-23T05:27:41.764Z,98348.58
2024-02-23T05:30:09.509Z,98350.83
2024-02-23T05:32:36.209Z,98351.20
2024-02-23T05:35:03.178Z,98351.06
2024-02-23T05:37:29.787Z,98348.86
2024-02-23T05:39:56.502Z,98353.65
2024-02-23T05:42:23.199Z,98349.93
2024-02-23T05:44:49.925Z,98352.02
2024-02-23T05:47:17.096Z,98349.14
2024-02-23T05:49:43.616Z,98351.38
2024-02-23T05:52:10.747Z,98350.01
2024-02-23T05:54:37.410Z,98348.64
2024-02-23T05:57:04.689Z,98350.86
2024-02-23T05:59:31.225Z,98353.77
2024-02-23T06:01:58.558Z,98355.17
2024-02-23T06:04:26.121Z,98357.75
2024-02-23T06:06:53.622Z,98360.48
2024-02-23T06:09:20.456Z,98366.60
2024-02-23T06:11:47.916Z,98367.96
2024-02-23T06:14:15.099Z,98375.45
2024-02-23T06:16:42.106Z,98378.66
2024-02-23T06:19:09.498Z,98393.80
2024-02-23T06:21:36.212Z,98390.55
2024-02-23T06:24:03.689Z,98392.42
2024-02-23T06:26:30.508Z,98395.48
2024-02-23T06:28:57.169Z,98405.86
2024-02-23T06:31:24.002Z,98408.39
2024-02-23T06:33:53.074Z,98415.86
2024-02-23T06:36:19.994Z,98421.46
2024-02-23T06:38:46.554Z,98421.79
2024-02-23T06:41:13.640Z,98427.90
2024-02-23T06:43:40.446Z,98434.16
2024-02-23T06:46:11.154Z,98441.44
2024-02-23T06:48:38.540Z,98436.98
2024-02-23T06:51:10.326Z,98442.58
2024-02-23T06:53:37.308Z,98442.20
2024-02-23T06:56:04.509Z,98444.23
2024-02-23T06:58:31.161Z,98437.90
2024-02-23T07:00:57.790Z,98433.10
2024-02-23T07:03:24.489Z,98433.40
2024-02-23T07:05:51.690Z,98441.72
2024-02-23T07:08:19.211Z,98450.53
2024-02-23T07:10:46.786Z,98448.29
2024-02-23T07:13:13.861Z,98451.80
2024-02-23T07:15:40.445Z,98457.21
2024-02-23T07:18:09.640Z,98468.58
2024-02-23T07:20:38.185Z,98460.90
2024-02-23T07:23:06.224Z,98452.84
2024-02-23T07:25:32.827Z,98454.85
2024-02-23T07:27:59.586Z,98448.83
2024-02-23T07:30:26.459Z,98441.41
2024-02-23T07:32:53.818Z,98436.55
2024-02-23T07:35:21.155Z,98437.66
2024-02-23T07:37:48.314Z,98431.63
2024-02-23T07:40:17.251Z,98431.55
2024-02-23T07:42:45.698Z,98436.99
2024-02-23T07:45:12.350Z,98435.80
2024-02-23T07:47:39.336Z,98443.45
2024-02-23T07:50:06.517Z,98452.26
2024-02-23T07:52:33.510Z,98458.51
2024-02-23T07:55:03.699Z,98458.83
2024-02-23T07:57:30.734Z,98460.19
2024-02-23T07:59:57.347Z,98473.61
2024-02-23T08:02:23.877Z,98472.63
2024-02-23T08:04:51.562Z,98478.91
2024-02-23T08:07:20.376Z,98486.22
2024-02-23T08:09:46.876Z,98491.63
2024-02-23T08:12:15.401Z,98483.93
2024-02-23T08:14:43.578Z,98487.30
2024-02-23T08:17:12.129Z,98494.27
2024-02-23T08:19:39.268Z,98492.43
2024-02-23T08:22:05.913Z,98489.15
2024-02-23T08:24:32.661Z,98485.71
2024-02-23T08:26:59.544Z,98485.18
2024-02-23T08:29:27.536Z,98484.59
2024-02-23T08:31:54.349Z,98478.36
2024-02-23T08:34:21.202Z,98481.22
2024-02-23T08:36:47.990Z,98480.02
2024-02-23T08:39:14.838Z,98483.39
2024-02-23T08:41:41.466Z,98483.86
2024-02-23T08:44:08.289Z,98490.52
2024-02-23T08:46:36.003Z,98489.66
2024-02-23T08:49:03.000Z,98493.43
2024-02-23T08:51:30.008Z,98496.67
2024-02-23T08:54:01.090Z,98502.18
2024-02-23T08:56:28.285Z,98501.55
2024-02-23T08:58:55.487Z,98501.73
2024-02-23T09:01:23.031Z,98499.88
2024-02-23T09:03:49.821Z,98503.10
2024-02-23T09:06:16.484Z,98503.46
2024-02-23T09:08:43.373Z,98500.93
2024-02-23T09:11:12.632Z,98504.53
2024-02-23T09:13:39.453Z,98499.31
2024-02-23T09:16:07.263Z,98499.20
2024-02-23T09:18:33.790Z,98506.61
2024-02-23T09:21:00.694Z,98501.20
2024-02-23T09:23:28.013Z,98499.66
2024-02-23T09:25:54.674Z,98504.95
2024-02-23T09:28:21.556Z,98499.65
2024-02-23T09:30:48.481Z,98499.51
2024-02-23T09:33:15.274Z,98499.89
2024-02-23T09:35:42.123Z,98499.56
2024-02-23T09:38:09.028Z,98492.58
2024-02-23T09:40:35.837Z,98493.92
2024-02-23T09:43:02.991Z,98490.85
2024-02-23T09:45:30.337Z,98486.85
2024-02-23T09:47:58.979Z,98486.06
2024-02-23T09:50:26.467Z,98483.70
2024-02-23T09:52:53.650Z,98480.19
2024-02-23T09:55:22.656Z,98475.80
2024-02-23T09:57:53.262Z,98482.72
2024-02-23T10:00:19.941Z,98478.48
2024-02-23T10:02:46.575Z,98479.24
2024-02-23T10:05:15.144Z,98478.84
2024-02-23T10:07:42.473Z,98477.98
2024-02-23T10:10:10.103Z,98482.56
2024-02-23T10:12:36.978Z,98490.11
2024-02-23T10:15:05.494Z,98481.88
2024-02-23T10:17:36.228Z,98477.70
2024-02-23T10:20:07.031Z,98478.91
2024-02-23T10:22:33.688Z,98478.20
2024-02-23T10:25:01.213Z,98473.04
2024-02-23T10:27:29.055Z,98472.39
2024-02-23T10:29:56.455Z,98467.80
2024-02-23T10:32:25.543Z,98470.52
2024-02-23T10:34:56.161Z,98468.29
2024-02-23T10:37:24.505Z,98474.00
2024-02-23T10:39:55.754Z,98472.31
2024-02-23T10:42:25.772Z,98469.64
2024-02-23T10:44:56.337Z,98468.96
2024-02-23T10:47:24.328Z,98468.90
2024-02-23T10:49:51.550Z,98472.67
2024-02-23T10:52:19.227Z,98471.09
2024-02-23T10:54:50.104Z,98472.35
2024-02-23T10:57:19.803Z,98481.59
2024-02-23T10:59:50.330Z,98468.16
2024-02-23T11:02:21.767Z,98459.00
2024-02-23T11:04:52.067Z,98464.85
2024-02-23T11:07:22.758Z,98456.94
2024-02-23T11:09:59.771Z,98457.06
2024-02-23T11:12:29.787Z,98461.92
2024-02-23T11:15:01.152Z,98450.48
2024-02-23T11:17:29.608Z,98455.02
2024-02-23T11:19:57.557Z,98450.02
2024-02-23T11:22:37.677Z,98455.45
2024-02-23T11:25:09.736Z,98462.23
2024-02-23T11:27:37.235Z,98465.61
2024-02-23T11:30:15.029Z,98469.13
2024-02-23T11:32:44.999Z,98463.40
2024-02-23T11:35:13.608Z,98468.89
2024-02-23T11:37:50.434Z,98467.42
2024-02-23T11:40:19.109Z,98468.58
2024-02-23T11:42:45.848Z,98466.01
2024-02-23T11:45:12.825Z,98471.77
2024-02-23T11:47:40.569Z,98469.04
2024-02-23T11:50:10.017Z,98472.06
2024-02-23T11:52:38.807Z,98471.70
2024-02-23T11:55:06.713Z,98474.33
2024-02-23T11:57:39.480Z,98477.75
2024-02-23T12:00:10.516Z,98476.21
2024-02-23T12:02:37.117Z,98483.77
2024-02-23T12:05:04.139Z,98476.96
2024-02-23T12:07:31.667Z,98468.17
2024-02-23T12:09:58.479Z,98467.77
2024-02-23T12:12:27.330Z,98463.80
2024-02-23T12:14:54.615Z,98468.83
2024-02-23T12:17:21.138Z,98467.98
2024-02-23T12:19:47.851Z,98466.44
2024-02-23T12:22:14.420Z,98471.08
2024-02-23T12:24:43.383Z,98467.93
2024-02-23T12:27:10.199Z,98475.35
2024-02-23T12:29:37.201Z,98473.51
2024-02-23T12:32:07.557Z,98472.36
2024-02-23T12:34:35.721Z,98471.34
2024-02-23T12:37:06.448Z,98468.73
2024-02-23T12:39:33.235Z,98460.39
2024-02-23T12:41:59.742Z,98459.15
2024-02-23T12:44:26.282Z,98459.67
2024-02-23T12:46:53.210Z,98461.34
2024-02-23T12:49:19.846Z,98457.45
2024-02-23T12:51:46.751Z,98453.41
2024-02-23T12:54:13.313Z,98447.62
2024-02-23T12:56:39.907Z,98448.78
2024-02-23T12:59:06.558Z,98448.02
2024-02-23T13:01:37.558Z,98441.10
2024-02-23T13:04:10.933Z,98445.20
2024-02-23T13:06:41.389Z,98440.11
2024-02-23T13:09:09.699Z,98441.55
2024-02-23T13:11:39.589Z,98439.45
2024-02-23T13:14:06.288Z,98442.58
2024-02-23T13:16:33.277Z,98442.23
2024-02-23T13:19:00.025Z,98452.00
2024-02-23T13:21:26.610Z,98458.48
2024-02-23T13:23:53.464Z,98453.45
2024-02-23T13:26:20.081Z,98451.27
2024-02-23T13:28:47.083Z,98454.40
2024-02-23T13:31:14.854Z,98457.59
2024-02-23T13:33:42.337Z,98452.48
2024-02-23T13:36:09.221Z,98451.23
2024-02-23T13:38:39.679Z,98450.05
2024-02-23T13:41:07.200Z,98456.59
2024-02-23T13:43:35.014Z,98451.14
2024-02-23T13:46:01.846Z,98453.27
2024-02-23T13:48:28.637Z,98451.81
2024-02-23T13:50:55.961Z,98444.26
2024-02-23T13:53:23.022Z,98438.41
2024-02-23T13:55:51.059Z,98428.87
2024-02-23T13:58:18.594Z,98427.17
2024-02-23T14:00:45.483Z,98417.55
2024-02-23T14:03:22.590Z,98425.33
2024-02-23T14:05:49.892Z,98426.10
2024-02-23T14:08:16.666Z,98424.82
2024-02-23T14:10:44.634Z,98423.73
2024-02-23T14:13:11.853Z,98425.61
2024-02-23T14:15:39.527Z,98429.42
2024-02-23T14:18:06.229Z,98430.13
2024-02-23T14:20:33.133Z,98433.95
2024-02-23T14:23:00.267Z,98432.66
2024-02-23T14:25:26.820Z,98422.61
2024-02-23T14:27:53.545Z,98418.20
2024-02-23T14:30:20.478Z,98425.34
2024-02-23T14:32:47.183Z,98419.36
2024-02-23T14:35:14.529Z,98416.80
2024-02-23T14:37:41.360Z,98416.30
2024-02-23T14:40:08.922Z,98410.83
2024-02-23T14:42:35.721Z,98406.08
2024-02-23T14:45:02.951Z,98399.49
2024-02-23T14:47:35.396Z,98403.98
2024-02-23T14:50:07.266Z,98403.44
2024-02-23T14:52:34.392Z,98405.88
2024-02-23T14:55:01.268Z,98414.90
2024-02-23T14:57:27.741Z,98416.52
2024-02-23T14:59:54.235Z,98413.97
2024-02-23T15:02:22.659Z,98410.27
2024-02-23T15:04:49.890Z,98403.19
2024-02-23T15:07:16.968Z,98407.43
2024-02-23T15:09:43.873Z,98402.41
2024-02-23T15:12:11.350Z,98400.77
2024-02-23T15:14:38.905Z,98395.46
2024-02-23T15:17:05.663Z,98390.42
2024-02-23T15:19:32.465Z,98382.27
2024-02-23T15:21:59.218Z,98369.57
2024-02-23T15:24:25.949Z,98368.70
2024-02-23T15:26:52.697Z,98365.45
2024-02-23T15:29:19.779Z,98369.12
2024-02-23T15:31:46.715Z,98364.59
2024-02-23T15:34:13.847Z,98367.75
2024-02-23T15:36:40.961Z,98366.69
2024-02-23T15:39:08.132Z,98373.59
2024-02-23T15:41:38.138Z,98371.45
2024-02-23T15:44:04.944Z,98378.02
2024-02-23T15:46:32.446Z,98386.19
2024-02-23T15:48:59.137Z,98389.64
2024-02-23T15:51:37.349Z,98387.42
2024-02-23T15:54:13.835Z,98384.55
2024-02-23T15:56:41.122Z,98383.11
2024-02-23T15:59:09.872Z,98383.98
2024-02-23T16:01:38.238Z,98391.13
2024-02-23T16:04:06.633Z,98394.52
2024-02-23T16:06:36.572Z,98391.08
2024-02-23T16:09:03.994Z,98398.31
2024-02-23T16:11:33.477Z,98397.53
2024-02-23T16:14:00.690Z,98395.95
2024-02-23T16:16:27.364Z,98398.46
2024-02-23T16:18:54.014Z,98395.64
2024-02-23T16:21:20.946Z,98395.84
2024-02-23T16:23:48.134Z,98396.72
2024-02-23T16:26:14.928Z,98400.90
2024-02-23T16:28:41.767Z,98400.20
2024-02-23T16:31:08.560Z,98398.68
2024-02-23T16:33:35.081Z,98403.04
2024-02-23T16:36:04.963Z,98405.81
2024-02-23T16:38:31.855Z,98406.24
2024-02-23T16:40:58.764Z,98405.17
2024-02-23T16:43:25.336Z,98408.63
2024-02-23T16:45:51.865Z,98408.05
2024-02-23T16:48:18.903Z,98410.85
2024-02-23T16:50:47.753Z,98415.48
2024-02-23T16:53:15.110Z,98412.20
2024-02-23T16:55:42.262Z,98411.48
2024-02-23T16:58:10.059Z,98407.48
2024-02-23T17:00:36.712Z,98405.63
2024-02-23T17:03:04.563Z,98399.35
2024-02-23T17:05:31.362Z,98392.38
2024-02-23T17:07:58.133Z,98392.89
2024-02-23T17:10:25.297Z,98397.13
2024-02-23T17:12:54.057Z,98402.90
2024-02-23T17:15:20.926Z,98405.02
2024-02-23T17:17:48.278Z,98409.52
2024-02-23T17:20:15.175Z,98405.50
2024-02-23T17:22:43.497Z,98405.41
2024-02-23T17:25:10.388Z,98408.20
2024-02-23T17:27:39.016Z,98408.09
2024-02-23T17:30:06.984Z,98411.16
2024-02-23T17:32:33.914Z,98406.42
2024-02-23T17:35:00.712Z,98416.36
2024-02-23T17:37:27.309Z,98413.98
2024-02-23T17:39:59.895Z,98415.36
2024-02-23T17:42:26.391Z,98417.66
2024-02-23T17:44:52.967Z,98421.43
2024-02-23T17:47:20.238Z,98424.52
2024-02-23T17:49:49.008Z,98430.54
2024-02-23T17:52:16.513Z,98426.30
2024-02-23T17:54:43.177Z,98427.48
2024-02-23T17:57:09.787Z,98431.59
2024-02-23T17:59:38.182Z,98433.99
2024-02-23T18:02:05.497Z,98437.75
2024-02-23T18:04:32.641Z,98443.60
2024-02-23T18:07:00.434Z,98445.68
2024-02-23T18:09:27.233Z,98446.02
2024-02-23T18:11:54.039Z,98448.07
2024-02-23T18:14:21.056Z,98446.50
2024-02-23T18:16:49.172Z,98444.09
2024-02-23T18:19:16.562Z,98449.21
2024-02-23T18:21:43.776Z,98448.35
2024-02-23T18:24:10.259Z,98446.47
2024-02-23T18:26:39.599Z,98448.67
2024-02-23T18:29:08.197Z,98457.23
2024-02-23T18:31:34.789Z,98451.05
2024-02-23T18:34:01.702Z,98456.87
2024-02-23T18:36:28.414Z,98452.80
2024-02-23T18:38:55.122Z,98453.21
2024-02-23T18:41:21.643Z,98458.18
2024-02-23T18:43:48.841Z,98455.28
2024-02-23T18:46:15.877Z,98457.21
2024-02-23T18:48:42.745Z,98458.77
2024-02-23T18:51:09.648Z,98455.42
2024-02-23T18:53:37.151Z,98458.77
2024-02-23T18:56:07.004Z,98462.27
2024-02-23T18:58:34.206Z,98458.25
2024-02-23T19:01:01.205Z,98456.79
2024-02-23T19:03:28.503Z,98459.73
2024-02-23T19:05:55.527Z,98459.27
2024-02-23T19:08:22.260Z,98458.10
2024-02-23T19:10:48.989Z,98461.07
2024-02-23T19:13:15.577Z,98466.23
2024-02-23T19:15:44.776Z,98465.24
2024-02-23T19:18:11.548Z,98463.36
2024-02-23T19:20:38.380Z,98460.11
2024-02-23T19:23:05.860Z,98454.46
2024-02-23T19:25:32.690Z,98452.55
2024-02-23T19:28:00.882Z,98455.96
2024-02-23T19:30:28.219Z,98456.65
2024-02-23T19:32:55.484Z,98456.34
2024-02-23T19:35:22.305Z,98455.81
2024-02-23T19:37:49.119Z,98452.71
2024-02-23T19:40:21.934Z,98450.83
2024-02-23T19:42:52.195Z,98451.15
2024-02-23T19:45:18.758Z,98448.07
2024-02-23T19:47:45.605Z,98450.14
2024-02-23T19:50:12.387Z,98446.72
2024-02-23T19:52:39.139Z,98446.91
2024-02-23T19:55:07.324Z,98446.39
2024-02-23T19:57:34.326Z,98446.73
2024-02-23T20:00:01.665Z,98444.89
2024-02-23T20:02:28.275Z,98440.65
2024-02-23T20:04:56.283Z,98438.14
2024-02-23T20:07:24.120Z,98440.23
2024-02-23T20:09:51.089Z,98440.30
2024-02-23T20:12:19.424Z,98436.94
2024-02-23T20:14:47.793Z,98433.55
2024-02-23T20:17:16.271Z,98431.02
2024-02-23T20:19:43.147Z,98433.65
2024-02-23T20:22:10.074Z,98438.82
2024-02-23T20:24:39.140Z,98440.58
2024-02-23T20:27:07.810Z,98442.88
2024-02-23T20:29:37.124Z,98445.82
2024-02-23T20:32:13.334Z,98442.79
2024-02-23T20:34:46.946Z,98443.36
2024-02-23T20:37:14.168Z,98444.09
2024-02-23T20:39:40.895Z,98442.11
2024-02-23T20:42:08.467Z,98439.56
2024-02-23T20:44:35.520Z,98439.41
2024-02-23T20:47:03.017Z,98440.64
2024-02-23T20:49:32.333Z,98442.86
2024-02-23T20:51:59.426Z,98437.58
2024-02-23T20:54:26.585Z,98439.46
2024-02-23T20:56:53.138Z,98437.09
2024-02-23T20:59:19.726Z,98432.84
2024-02-23T21:01:46.311Z,98434.77
2024-02-23T21:04:12.921Z,98435.70
2024-02-23T21:06:40.186Z,98437.52
2024-02-23T21:09:06.906Z,98439.13
2024-02-23T21:11:33.659Z,98440.88
2024-02-23T21:14:00.482Z,98434.93
2024-02-23T21:16:27.076Z,98434.63
2024-02-23T21:18:53.706Z,98439.48
2024-02-23T21:21:21.459Z,98441.41
2024-02-23T21:23:49.491Z,98440.94
2024-02-23T21:26:16.683Z,98440.64
2024-02-23T21:28:43.815Z,98439.16
2024-02-23T21:31:10.462Z,98436.45
2024-02-23T21:33:37.159Z,98437.17
2024-02-23T21:36:04.376Z,98441.98
2024-02-23T21:41:25.104Z,98448.23
2024-02-23T21:43:51.831Z,98452.89
2024-02-23T21:46:18.342Z,98451.23
2024-02-23T21:48:46.085Z,98445.30
2024-02-23T21:51:13.270Z,98444.12
2024-02-23T21:53:40.082Z,98443.83
2024-02-23T21:56:07.221Z,98440.94
2024-02-23T21:58:34.614Z,98436.55
2024-02-23T22:01:01.939Z,98436.05
2024-02-23T22:03:30.087Z,98439.47
2024-02-23T22:05:56.730Z,98443.61
2024-02-23T22:08:23.377Z,98442.94
2024-02-23T22:10:50.300Z,98442.98
2024-02-23T22:13:17.087Z,98444.22
2024-02-23T22:15:43.818Z,98444.43
2024-02-23T22:18:10.836Z,98449.73
2024-02-23T22:20:37.488Z,98445.00
2024-02-23T22:23:04.419Z,98446.73
2024-02-23T22:25:31.213Z,98448.14
2024-02-23T22:27:57.859Z,98448.52
2024-02-23T22:30:24.542Z,98441.37
2024-02-23T22:32:51.301Z,98441.91
2024-02-23T22:35:20.062Z,98442.64
2024-02-23T22:37:46.544Z,98440.48
2024-02-23T22:40:14.572Z,98444.27
2024-02-23T22:42:41.770Z,98444.82
2024-02-23T22:45:10.091Z,98445.55
2024-02-23T22:47:36.633Z,98450.00
2024-02-23T22:50:03.586Z,98450.21
2024-02-23T22:52:30.650Z,98447.87
2024-02-23T22:54:57.487Z,98446.38
2024-02-23T22:57:24.083Z,98445.05
2024-02-23T22:59:50.899Z,98442.38
2024-02-23T23:02:17.853Z,98448.36
2024-02-23T23:04:45.094Z,98448.88
2024-02-23T23:07:12.538Z,98448.21
2024-02-23T23:09:39.406Z,98450.61
2024-02-23T23:12:06.156Z,98451.14
2024-02-23T23:14:33.060Z,98447.38
2024-02-23T23:16:59.947Z,98456.41
2024-02-23T23:19:26.562Z,98460.52
2024-02-23T23:21:53.512Z,98465.98
2024-02-23T23:24:21.283Z,98481.02
2024-02-23T23:26:48.476Z,98488.90
2024-02-23T23:29:15.614Z,98489.95
2024-02-23T23:31:42.239Z,98493.56
2024-02-23T23:34:08.820Z,98498.70
2024-02-23T23:36:35.611Z,98498.36
2024-02-23T23:39:02.316Z,98493.92
2024-02-23T23:41:28.969Z,98487.45
2024-02-23T23:43:56.043Z,98485.40
2024-02-23T23:46:22.629Z,98483.70
2024-02-23T23:48:49.166Z,98475.70
2024-02-23T23:51:15.857Z,98476.20
2024-02-23T23:53:42.622Z,98477.55
2024-02-23T23:56:12.978Z,98482.48
2024-02-23T23:58:39.935Z,98483.34
